Time;durP1;ratioP1;P1;durP2;ratioP2;P2;SDS_P1;SDS_P2;PMS_P1;PMS_P2;Temp;Humidity;BMP_temperature;BMP_pressure;BME280_temperature;BME280_humidity;BME280_pressure;Samples;Min_cycle;Max_cycle;Signal;HPM_P1;HPM_P2
2024/04/03 00:02:23;;;;;;;2.83;2.20;;;15.90;62.00;;;;;;5031673;28;20176;-67
2024/04/03 00:04:48;;;;;;;5.93;2.70;;;15.90;62.00;;;;;;5032066;28;20171;-67
2024/04/03 00:07:14;;;;;;;3.15;1.92;;;15.90;62.00;;;;;;5031045;28;20266;-67
2024/04/03 00:09:39;;;;;;;2.83;2.28;;;15.90;62.00;;;;;;5032155;28;20174;-67
2024/04/03 00:12:05;;;;;;;2.45;2.08;;;15.90;62.00;;;;;;5031853;28;20187;-67
2024/04/03 00:14:31;;;;;;;3.08;1.98;;;15.90;62.10;;;;;;5030817;28;20191;-67
2024/04/03 00:16:56;;;;;;;4.57;2.28;;;15.90;62.10;;;;;;5031690;28;20180;-67
2024/04/03 00:19:22;;;;;;;2.50;2.13;;;15.90;62.10;;;;;;5031474;28;20215;-68
2024/04/03 00:21:50;;;;;;;2.38;1.85;;;15.90;62.20;;;;;;5031314;28;20175;-67
2024/04/03 00:24:16;;;;;;;4.10;2.00;;;15.90;62.20;;;;;;5031663;28;20180;-68
2024/04/03 00:26:41;;;;;;;3.17;1.90;;;15.90;62.20;;;;;;5031793;28;20176;-67
2024/04/03 00:29:07;;;;;;;2.20;1.80;;;15.90;62.20;;;;;;5030918;28;20217;-67
2024/04/03 00:31:33;;;;;;;3.35;2.00;;;15.90;62.20;;;;;;5031554;28;20565;-67
2024/04/03 00:33:58;;;;;;;2.53;1.75;;;15.90;62.20;;;;;;5031385;28;20187;-68
2024/04/03 00:36:24;;;;;;;1.90;1.70;;;15.80;62.10;;;;;;5030769;28;20183;-68
2024/04/03 00:38:49;;;;;;;2.83;2.10;;;15.80;62.20;;;;;;5031532;28;20211;-68
2024/04/03 00:41:15;;;;;;;3.42;2.08;;;15.90;62.30;;;;;;5030928;28;20223;-67
2024/04/03 00:43:40;;;;;;;2.05;1.73;;;15.90;62.30;;;;;;5030841;28;20186;-68
2024/04/03 00:46:06;;;;;;;1.92;1.67;;;15.80;62.20;;;;;;5031286;28;20171;-67
2024/04/03 00:48:31;;;;;;;2.90;1.77;;;15.80;62.40;;;;;;5031211;28;20187;-68
2024/04/03 00:50:57;;;;;;;3.67;2.00;;;15.80;62.30;;;;;;5030837;28;20172;-67
2024/04/03 00:53:23;;;;;;;2.85;1.70;;;15.80;62.30;;;;;;5030775;28;20175;-68
2024/04/03 00:55:49;;;;;;;1.98;1.50;;;15.80;62.40;;;;;;5031416;28;20176;-67
2024/04/03 00:58:14;;;;;;;3.63;1.92;;;15.80;62.40;;;;;;5028895;28;20615;-67
2024/04/03 01:00:40;;;;;;;2.80;2.08;;;15.80;62.40;;;;;;5031098;28;20270;-67
2024/04/03 01:03:05;;;;;;;4.03;2.15;;;15.80;62.40;;;;;;5031344;28;20263;-67
2024/04/03 01:05:31;;;;;;;3.50;2.00;;;15.80;62.40;;;;;;5030338;28;20225;-67
2024/04/03 01:07:57;;;;;;;2.00;1.52;;;15.80;62.50;;;;;;5031307;28;20588;-67
2024/04/03 01:10:22;;;;;;;3.60;1.83;;;15.90;62.50;;;;;;5030299;28;20619;-67
2024/04/03 01:12:48;;;;;;;2.80;1.60;;;15.80;62.50;;;;;;5031107;28;20263;-67
2024/04/03 01:15:14;;;;;;;3.05;1.70;;;15.80;62.50;;;;;;5029528;28;20184;-67
2024/04/03 01:17:39;;;;;;;1.65;1.55;;;15.90;62.50;;;;;;5030579;28;21037;-67
2024/04/03 01:20:08;;;;;;;3.50;1.90;;;15.90;62.60;;;;;;5030973;28;20257;-67
2024/04/03 01:22:34;;;;;;;1.90;1.70;;;15.80;62.50;;;;;;5031200;28;20251;-67
2024/04/03 01:25:00;;;;;;;2.40;1.60;;;15.80;62.60;;;;;;5030349;28;20175;-67
2024/04/03 01:27:27;;;;;;;3.67;2.13;;;15.80;62.60;;;;;;5030837;28;20183;-67
2024/04/03 01:29:52;;;;;;;2.97;1.75;;;15.80;62.60;;;;;;5030947;28;20190;-67
2024/04/03 01:32:19;;;;;;;2.13;1.70;;;15.80;62.60;;;;;;5030104;28;20171;-67
2024/04/03 01:34:45;;;;;;;3.42;1.77;;;15.80;62.70;;;;;;5031216;28;20180;-68
2024/04/03 01:37:10;;;;;;;2.63;2.00;;;15.80;62.70;;;;;;5031263;28;20626;-68
2024/04/03 01:39:36;;;;;;;1.88;1.40;;;15.80;63.50;;;;;;5030742;28;20204;-67
2024/04/03 01:42:02;;;;;;;2.13;1.40;;;15.80;62.70;;;;;;5031251;28;20234;-68
2024/04/03 01:44:27;;;;;;;3.47;1.80;;;15.80;62.70;;;;;;5031171;28;20199;-68
2024/04/03 01:46:53;;;;;;;1.95;1.73;;;15.80;62.70;;;;;;5030828;28;20180;-67
2024/04/03 01:49:18;;;;;;;2.47;1.50;;;15.80;62.70;;;;;;5031309;28;20229;-67
2024/04/03 01:51:44;;;;;;;1.60;1.48;;;15.80;62.70;;;;;;5031480;28;20178;-67
2024/04/03 01:54:09;;;;;;;1.98;1.65;;;15.80;62.70;;;;;;5030301;28;20310;-68
2024/04/03 01:56:35;;;;;;;2.75;1.60;;;15.80;62.70;;;;;;5031392;28;20305;-68
2024/04/03 01:59:00;;;;;;;2.45;1.48;;;15.70;62.70;;;;;;5030956;28;20211;-67
2024/04/03 02:01:26;;;;;;;3.60;1.83;;;15.80;62.70;;;;;;5030521;28;20186;-67
2024/04/03 02:03:51;;;;;;;1.98;1.55;;;15.80;62.70;;;;;;5031349;28;20180;-68
2024/04/03 02:06:17;;;;;;;2.50;1.38;;;15.70;62.70;;;;;;5034249;28;20175;-68
2024/04/03 02:08:43;;;;;;;1.88;1.40;;;15.80;62.70;;;;;;5034308;28;20242;-68
2024/04/03 02:11:08;;;;;;;2.33;1.50;;;15.70;62.70;;;;;;5034493;28;20573;-67
2024/04/03 02:13:34;;;;;;;2.42;1.75;;;15.80;62.70;;;;;;5034624;28;20635;-67
2024/04/03 02:15:59;;;;;;;1.80;1.40;;;15.80;62.80;;;;;;5034409;28;20175;-68
2024/04/03 02:18:25;;;;;;;1.55;1.20;;;15.70;62.70;;;;;;5034407;28;20249;-67
2024/04/03 02:20:50;;;;;;;1.65;1.38;;;15.70;62.80;;;;;;5034100;28;20234;-68
2024/04/03 02:23:16;;;;;;;2.08;1.60;;;15.70;62.80;;;;;;5034448;28;20246;-67
2024/04/03 02:25:41;;;;;;;1.52;1.42;;;15.70;62.80;;;;;;5034607;28;20179;-67
2024/04/03 02:28:07;;;;;;;1.35;1.25;;;15.70;62.80;;;;;;5033744;28;20180;-67
2024/04/03 02:30:32;;;;;;;2.92;1.45;;;15.70;62.70;;;;;;5034603;28;20203;-68
2024/04/03 02:32:58;;;;;;;2.45;1.30;;;15.70;62.80;;;;;;5034518;28;20584;-68
2024/04/03 02:35:26;;;;;;;3.10;1.52;;;15.70;62.80;;;;;;5033365;28;20630;-68
2024/04/03 02:37:52;;;;;;;2.10;1.55;;;15.70;62.90;;;;;;5034333;28;20167;-68
2024/04/03 02:40:17;;;;;;;2.15;1.48;;;15.70;62.90;;;;;;5033981;28;20239;-68
2024/04/03 02:42:43;;;;;;;1.80;1.20;;;15.70;62.90;;;;;;5032905;28;20293;-67
2024/04/03 02:45:08;;;;;;;2.25;1.35;;;15.70;62.90;;;;;;5033779;28;20604;-68
2024/04/03 02:47:35;;;;;;;1.40;1.30;;;15.70;62.90;;;;;;5034159;28;20630;-68
2024/04/03 02:50:00;;;;;;;1.48;1.25;;;15.70;62.90;;;;;;5033319;28;20645;-68
2024/04/03 02:52:26;;;;;;;1.20;1.10;;;15.70;62.90;;;;;;5033785;28;20176;-68
2024/04/03 02:54:51;;;;;;;1.67;1.13;;;15.70;63.70;;;;;;5033967;28;20176;-67
2024/04/03 02:57:17;;;;;;;2.15;1.33;;;15.70;62.90;;;;;;5032907;28;20174;-68
2024/04/03 02:59:42;;;;;;;1.20;1.00;;;15.70;62.90;;;;;;5034088;28;20207;-68
2024/04/03 03:02:08;;;;;;;1.98;1.20;;;15.70;63.00;;;;;;5033683;28;20176;-68
2024/04/03 03:04:43;;;;;;;1.98;1.40;;;15.70;62.90;;;;;;5033236;28;20182;-68
2024/04/03 03:07:09;;;;;;;2.55;1.58;;;15.70;62.90;;;;;;5033511;28;20575;-67
2024/04/03 03:09:35;;;;;;;1.55;1.15;;;15.70;63.00;;;;;;5033708;28;20266;-68
2024/04/03 03:12:00;;;;;;;1.30;1.20;;;15.70;63.00;;;;;;5032982;28;20222;-67
2024/04/03 03:14:26;;;;;;;1.73;1.50;;;15.70;63.00;;;;;;5033381;28;20225;-68
2024/04/03 03:16:52;;;;;;;2.13;1.27;;;15.70;63.00;;;;;;5033280;28;20175;-67
2024/04/03 03:19:17;;;;;;;2.75;1.38;;;15.70;63.00;;;;;;5032859;28;20682;-68
2024/04/03 03:21:42;;;;;;;1.33;1.10;;;15.60;62.90;;;;;;5033599;28;20179;-67
2024/04/03 03:24:08;;;;;;;1.48;1.30;;;15.60;62.90;;;;;;5032611;28;20199;-67
2024/04/03 03:26:34;;;;;;;1.63;1.35;;;15.70;63.00;;;;;;5033696;28;20180;-68
2024/04/03 03:28:59;;;;;;;1.48;1.33;;;15.70;63.00;;;;;;5033476;28;20180;-67
2024/04/03 03:31:25;;;;;;;1.75;1.15;;;15.60;62.90;;;;;;5032497;28;20514;-67
2024/04/03 03:33:50;;;;;;;1.45;1.20;;;15.60;63.00;;;;;;5033369;28;20221;-68
2024/04/03 03:36:16;;;;;;;2.08;1.05;;;15.60;62.90;;;;;;5033017;28;20535;-68
2024/04/03 03:38:41;;;;;;;1.00;0.98;;;15.60;62.90;;;;;;5032497;28;20195;-68
2024/04/03 03:41:07;;;;;;;1.75;1.05;;;15.60;63.00;;;;;;5032798;28;20305;-67
2024/04/03 03:43:32;;;;;;;1.23;0.93;;;15.60;63.00;;;;;;5032877;28;20253;-67
2024/04/03 03:46:00;;;;;;;2.05;1.15;;;15.60;63.00;;;;;;5032495;28;20231;-68
2024/04/03 03:53:57;;;;;;;1.63;1.30;;;15.60;63.00;;;;;;5032258;28;20183;-68
2024/04/03 03:56:23;;;;;;;1.17;1.08;;;15.60;63.00;;;;;;5032638;28;20168;-68
2024/04/03 03:58:49;;;;;;;1.23;1.10;;;15.60;63.10;;;;;;5032894;28;20219;-68
2024/04/03 04:01:14;;;;;;;1.67;1.30;;;15.60;63.10;;;;;;5031758;28;20172;-68
2024/04/03 04:03:40;;;;;;;1.35;1.10;;;15.60;63.10;;;;;;5032754;28;20175;-68
2024/04/03 04:06:05;;;;;;;1.67;1.20;;;15.60;63.10;;;;;;5032949;28;20264;-68
2024/04/03 04:08:31;;;;;;;1.27;1.10;;;15.60;63.10;;;;;;5032216;28;20258;-68
2024/04/03 04:10:58;;;;;;;2.15;1.17;;;15.60;63.20;;;;;;5032608;28;20183;-68
2024/04/03 04:13:23;;;;;;;2.05;1.27;;;15.60;63.10;;;;;;5031949;28;20184;-67
2024/04/03 04:15:49;;;;;;;1.13;1.00;;;15.60;63.10;;;;;;5032728;28;20178;-68
2024/04/03 04:18:14;;;;;;;1.40;1.30;;;15.60;63.10;;;;;;5032225;28;20176;-68
2024/04/03 04:20:43;;;;;;;1.02;0.98;;;15.60;63.10;;;;;;5031873;28;20262;-68
2024/04/03 04:23:11;;;;;;;1.33;1.23;;;15.60;63.10;;;;;;5032183;28;20187;-68
2024/04/03 04:25:37;;;;;;;2.25;1.30;;;15.60;63.10;;;;;;5032435;28;20178;-67
2024/04/03 04:28:03;;;;;;;1.65;1.27;;;15.60;63.10;;;;;;5031012;28;20259;-67
2024/04/03 04:30:29;;;;;;;1.42;1.17;;;15.60;63.10;;;;;;5031956;28;20191;-67
2024/04/03 04:32:54;;;;;;;1.13;0.85;;;15.60;63.20;;;;;;5032073;28;20198;-67
2024/04/03 04:35:20;;;;;;;1.70;1.10;;;15.60;63.20;;;;;;5031139;28;20187;-67
2024/04/03 04:37:48;;;;;;;2.30;1.10;;;15.60;63.10;;;;;;5032342;28;20180;-68
2024/04/03 04:40:15;;;;;;;1.30;1.05;;;15.60;63.10;;;;;;5031743;28;20220;-68
2024/04/03 04:42:40;;;;;;;1.38;1.20;;;15.60;63.10;;;;;;5031173;28;20584;-68
2024/04/03 04:45:06;;;;;;;1.15;1.02;;;15.50;63.10;;;;;;5032115;28;20180;-68
2024/04/03 04:47:32;;;;;;;1.08;1.00;;;15.50;63.20;;;;;;5031703;28;20172;-68
2024/04/03 04:49:57;;;;;;;1.45;1.17;;;15.60;63.20;;;;;;5031449;28;20178;-68
2024/04/03 04:52:23;;;;;;;1.52;1.00;;;15.50;63.20;;;;;;5031751;28;20262;-69
2024/04/03 04:54:48;;;;;;;1.65;0.98;;;15.60;63.20;;;;;;5031902;28;20206;-68
2024/04/03 04:57:15;;;;;;;1.55;1.05;;;15.50;63.20;;;;;;5030968;28;20183;-69
2024/04/03 04:59:41;;;;;;;1.10;1.00;;;15.50;63.20;;;;;;5031792;28;20216;-68
2024/04/03 05:02:06;;;;;;;1.42;0.88;;;15.50;63.20;;;;;;5031627;28;20178;-68
2024/04/03 05:04:32;;;;;;;1.42;1.17;;;15.50;63.10;;;;;;5030837;28;20176;-69
2024/04/03 05:07:00;;;;;;;0.95;0.90;;;15.50;63.20;;;;;;5032015;28;20183;-67
2024/04/03 05:09:28;;;;;;;1.20;1.10;;;15.50;63.20;;;;;;5031209;28;20229;-68
2024/04/03 05:11:53;;;;;;;1.05;0.90;;;15.50;63.20;;;;;;5031996;28;20183;-68
2024/04/03 05:14:19;;;;;;;1.60;1.20;;;15.50;63.20;;;;;;5031790;28;20203;-68
2024/04/03 05:16:44;;;;;;;1.25;1.02;;;15.50;63.20;;;;;;5031421;28;20186;-68
2024/04/03 05:19:12;;;;;;;1.38;1.27;;;15.50;63.20;;;;;;5031576;28;20215;-68
2024/04/03 05:21:38;;;;;;;1.35;1.08;;;15.50;63.20;;;;;;5031834;28;20259;-68
2024/04/03 05:24:03;;;;;;;1.15;1.05;;;15.50;63.20;;;;;;5030977;28;20263;-68
2024/04/03 05:26:29;;;;;;;1.60;1.10;;;15.50;63.20;;;;;;5031331;28;20651;-68
2024/04/03 05:28:55;;;;;;;1.95;1.00;;;15.50;63.20;;;;;;5031495;28;20282;-68
2024/04/03 05:31:22;;;;;;;1.58;1.15;;;15.50;63.20;;;;;;5030772;28;20244;-68
2024/04/03 05:33:47;;;;;;;1.25;0.90;;;15.50;63.20;;;;;;5031755;28;20179;-69
2024/04/03 05:36:13;;;;;;;1.73;0.90;;;15.50;63.20;;;;;;5031299;28;20183;-69
2024/04/03 05:38:38;;;;;;;1.70;1.38;;;15.50;63.30;;;;;;5031627;28;20207;-69
2024/04/03 05:41:04;;;;;;;0.80;0.80;;;15.50;63.30;;;;;;5035215;28;20216;-68
2024/04/03 05:43:30;;;;;;;0.80;0.80;;;15.50;63.20;;;;;;5034765;28;20191;-68
2024/04/03 05:45:55;;;;;;;1.58;1.05;;;15.50;63.30;;;;;;5034493;28;20172;-68
2024/04/03 05:48:22;;;;;;;1.35;1.10;;;15.50;63.30;;;;;;5034918;28;20536;-69
2024/04/03 05:50:57;;;;;;;1.17;1.10;;;15.50;63.30;;;;;;5035482;28;20259;-68
2024/04/03 05:53:23;;;;;;;2.33;1.23;;;15.50;63.20;;;;;;5034137;28;20179;-69
2024/04/03 05:55:58;;;;;;;2.60;1.27;;;15.50;63.30;;;;;;5035292;28;20315;-68
2024/04/03 05:58:24;;;;;;;1.27;1.10;;;15.60;63.40;;;;;;5034588;28;20535;-69
2024/04/03 06:00:51;;;;;;;1.77;1.10;;;15.70;63.40;;;;;;5034639;28;20183;-68
2024/04/03 06:03:17;;;;;;;1.55;1.35;;;15.80;63.20;;;;;;5034882;28;20187;-68
2024/04/03 06:05:43;;;;;;;1.48;0.77;;;16.00;63.10;;;;;;5034322;28;20631;-69
2024/04/03 06:08:08;;;;;;;2.25;1.00;;;16.10;62.80;;;;;;5034578;28;20175;-68
2024/04/03 06:10:36;;;;;;;1.60;0.90;;;16.30;63.40;;;;;;5034974;28;20203;-68
2024/04/03 06:13:03;;;;;;;1.33;1.20;;;16.40;62.30;;;;;;5034072;28;20190;-68
2024/04/03 06:15:29;;;;;;;1.40;0.93;;;16.50;62.00;;;;;;5034730;28;20190;-68
2024/04/03 06:17:55;;;;;;;1.50;1.00;;;16.70;61.70;;;;;;5034920;28;20176;-68
2024/04/03 06:20:20;;;;;;;0.82;0.82;;;16.80;61.50;;;;;;5033749;28;20226;-68
2024/04/03 06:22:48;;;;;;;1.45;1.13;;;16.90;61.20;;;;;;5034827;28;20179;-68
2024/04/03 06:25:14;;;;;;;1.20;0.90;;;17.00;60.90;;;;;;5034289;28;20179;-68
2024/04/03 06:27:40;;;;;;;1.38;0.93;;;17.10;60.50;;;;;;5033887;28;20180;-68
2024/04/03 06:30:06;;;;;;;1.13;0.98;;;17.20;60.10;;;;;;5034657;28;20271;-68
2024/04/03 06:32:32;;;;;;;0.82;0.70;;;17.20;60.00;;;;;;5034628;28;20291;-68
2024/04/03 06:34:57;;;;;;;1.02;0.90;;;17.30;59.90;;;;;;5033795;28;20291;-68
2024/04/03 06:37:23;;;;;;;0.82;0.70;;;17.30;59.90;;;;;;5034143;28;20612;-68
2024/04/03 06:39:49;;;;;;;1.52;0.98;;;17.20;60.00;;;;;;5034343;28;20737;-68
2024/04/03 06:42:14;;;;;;;2.13;0.93;;;17.20;60.00;;;;;;5032984;28;20558;-68
2024/04/03 06:44:40;;;;;;;3.15;0.70;;;17.20;59.90;;;;;;5034498;28;20171;-67
2024/04/03 06:47:05;;;;;;;1.63;1.00;;;17.30;59.90;;;;;;5034368;28;20267;-67
2024/04/03 06:49:32;;;;;;;1.33;1.00;;;17.30;59.90;;;;;;5033167;28;20182;-67
2024/04/03 06:51:58;;;;;;;1.02;0.82;;;17.30;59.90;;;;;;5033523;28;20168;-67
2024/04/03 06:54:24;;;;;;;1.00;0.90;;;17.30;60.00;;;;;;5033724;28;20222;-68
2024/04/03 06:56:49;;;;;;;1.02;0.70;;;17.40;59.80;;;;;;5033369;28;20172;-68
2024/04/03 06:59:15;;;;;;;1.30;0.80;;;17.40;59.70;;;;;;5033471;28;20579;-67
2024/04/03 07:01:40;;;;;;;0.77;0.75;;;17.40;59.70;;;;;;5033984;28;20184;-68
2024/04/03 07:04:06;;;;;;;2.10;0.90;;;17.40;59.70;;;;;;5033291;28;20171;-68
2024/04/03 07:06:33;;;;;;;1.48;0.82;;;17.40;59.70;;;;;;5033581;28;20701;-68
2024/04/03 07:08:59;;;;;;;0.75;0.65;;;17.40;59.70;;;;;;5033458;28;20567;-67
2024/04/03 07:11:24;;;;;;;0.80;0.70;;;17.40;59.80;;;;;;5033173;28;20171;-68
2024/04/03 07:13:50;;;;;;;2.63;1.08;;;17.40;59.70;;;;;;5033951;28;20172;-67
2024/04/03 07:16:15;;;;;;;0.80;0.80;;;17.40;59.70;;;;;;5032810;28;20175;-68
2024/04/03 07:18:41;;;;;;;1.17;0.80;;;17.50;59.70;;;;;;5033678;28;20200;-68
2024/04/03 07:21:07;;;;;;;1.00;0.95;;;17.40;59.70;;;;;;5033593;28;20638;-67
2024/04/03 07:23:33;;;;;;;1.20;0.60;;;17.40;59.70;;;;;;5032786;28;20669;-67
2024/04/03 07:25:59;;;;;;;0.90;0.80;;;17.40;59.70;;;;;;5033361;28;20180;-67
2024/04/03 07:28:27;;;;;;;1.05;0.70;;;17.40;59.70;;;;;;5032202;28;20187;-67
2024/04/03 07:30:52;;;;;;;1.13;0.95;;;17.40;59.80;;;;;;5032812;28;20180;-67
2024/04/03 07:33:18;;;;;;;0.98;0.73;;;17.30;59.90;;;;;;5033198;28;20543;-67
2024/04/03 07:35:43;;;;;;;2.08;0.80;;;17.30;60.00;;;;;;5033297;28;20837;-68
2024/04/03 07:38:09;;;;;;;0.88;0.70;;;17.20;60.00;;;;;;5032141;28;20176;-68
2024/04/03 07:40:35;;;;;;;1.02;0.80;;;17.30;60.10;;;;;;5032935;28;20212;-68
2024/04/03 07:43:00;;;;;;;2.05;0.95;;;17.20;60.30;;;;;;5033069;28;20187;-67
2024/04/03 07:45:26;;;;;;;0.70;0.70;;;17.20;60.40;;;;;;5032355;28;20186;-67
2024/04/03 07:47:51;;;;;;;1.50;0.90;;;17.20;60.40;;;;;;5033272;28;20639;-68
2024/04/03 07:50:17;;;;;;;0.95;0.80;;;17.20;60.40;;;;;;5032664;28;20631;-68
2024/04/03 07:52:43;;;;;;;0.88;0.65;;;17.20;60.30;;;;;;5032332;28;20176;-68
2024/04/03 07:55:12;;;;;;;1.58;0.90;;;17.20;60.30;;;;;;5032611;28;20188;-68
2024/04/03 07:57:38;;;;;;;1.05;0.60;;;17.20;60.30;;;;;;5033141;28;20180;-67
2024/04/03 08:00:09;;;;;;;0.70;0.70;;;17.20;60.30;;;;;;5031959;28;20581;-68
2024/04/03 08:02:37;;;;;;;1.48;0.90;;;17.20;60.30;;;;;;5031888;28;20533;-68
2024/04/03 08:05:21;;;;;;;0.90;0.80;;;17.20;60.50;;;;;;5032763;28;20192;-67
2024/04/03 08:07:46;;;;;;;0.82;0.82;;;17.10;60.50;;;;;;5032758;28;20903;-68
2024/04/03 08:10:12;;;;;;;1.00;0.80;;;17.00;60.60;;;;;;5032273;28;20180;-67
2024/04/03 08:12:39;;;;;;;1.17;0.90;;;17.00;60.80;;;;;;5031968;28;20180;-67
2024/04/03 08:15:05;;;;;;;1.67;1.00;;;17.00;60.90;;;;;;5032619;28;20184;-68
2024/04/03 08:17:31;;;;;;;1.40;0.90;;;17.00;60.90;;;;;;5032370;28;20191;-67
2024/04/03 08:19:56;;;;;;;1.27;1.00;;;17.00;60.90;;;;;;5030509;28;20207;-68
2024/04/03 08:22:23;;;;;;;1.05;0.88;;;17.00;60.90;;;;;;5032013;28;20176;-67
2024/04/03 08:24:49;;;;;;;1.38;0.73;;;17.00;60.90;;;;;;5032410;28;20641;-68
2024/04/03 08:27:15;;;;;;;1.48;0.90;;;17.00;60.90;;;;;;5031374;28;20250;-67
2024/04/03 08:29:43;;;;;;;1.15;0.70;;;16.90;61.70;;;;;;5032413;28;20180;-67
2024/04/03 08:32:12;;;;;;;1.13;0.80;;;16.90;61.00;;;;;;5032007;28;20176;-67
2024/04/03 08:34:38;;;;;;;0.85;0.80;;;16.90;61.10;;;;;;5031444;28;20179;-69
2024/04/03 08:37:04;;;;;;;1.10;0.90;;;16.90;61.20;;;;;;5032411;28;20309;-68
2024/04/03 08:39:30;;;;;;;1.25;1.00;;;16.90;61.30;;;;;;5031942;28;20215;-68
2024/04/03 08:41:57;;;;;;;0.70;0.63;;;16.80;61.20;;;;;;5031324;28;20234;-68
2024/04/03 08:44:23;;;;;;;1.25;0.90;;;16.80;61.30;;;;;;5031897;28;20183;-68
2024/04/03 08:46:48;;;;;;;0.73;0.60;;;16.80;61.40;;;;;;5031990;28;20180;-68
2024/04/03 08:49:16;;;;;;;1.25;0.90;;;16.80;61.30;;;;;;5031015;28;20184;-68
2024/04/03 08:51:43;;;;;;;1.13;0.85;;;16.80;61.30;;;;;;5030928;28;20265;-68
2024/04/03 08:54:09;;;;;;;0.90;0.70;;;16.80;61.30;;;;;;5030593;28;20188;-68
2024/04/03 08:56:34;;;;;;;1.63;0.70;;;16.80;61.30;;;;;;5030172;28;20188;-68
2024/04/03 08:59:00;;;;;;;1.58;0.80;;;16.80;61.40;;;;;;5030575;28;20230;-69
2024/04/03 09:01:26;;;;;;;1.02;0.80;;;16.70;61.40;;;;;;5030370;28;20577;-68
2024/04/03 09:03:51;;;;;;;0.60;0.60;;;16.70;61.40;;;;;;5030846;28;20171;-69
2024/04/03 09:06:17;;;;;;;1.05;0.80;;;16.70;61.50;;;;;;5031702;28;20168;-68
2024/04/03 09:08:42;;;;;;;1.38;1.00;;;16.70;61.60;;;;;;5031290;28;20198;-68
2024/04/03 09:11:08;;;;;;;1.27;0.98;;;16.70;61.60;;;;;;5031547;28;20271;-68
2024/04/03 09:13:34;;;;;;;1.20;0.70;;;16.70;61.60;;;;;;5032514;28;20592;-68
2024/04/03 09:16:01;;;;;;;0.80;0.65;;;16.70;61.60;;;;;;5035188;28;20663;-68
2024/04/03 09:18:26;;;;;;;0.80;0.80;;;16.70;61.50;;;;;;5035387;28;20167;-68
2024/04/03 09:20:52;;;;;;;1.85;1.02;;;16.80;61.50;;;;;;5035932;28;20221;-68
2024/04/03 09:23:18;;;;;;;0.80;0.75;;;16.70;61.50;;;;;;5035018;28;20172;-68
2024/04/03 09:25:44;;;;;;;0.95;0.70;;;16.70;61.50;;;;;;5035627;28;20175;-68
2024/04/03 09:28:10;;;;;;;0.70;0.70;;;16.70;61.60;;;;;;5035207;28;20263;-68
2024/04/03 09:30:39;;;;;;;1.77;0.93;;;16.70;61.70;;;;;;5034965;28;20183;-68
2024/04/03 09:33:05;;;;;;;1.40;0.77;;;16.70;61.70;;;;;;5035340;28;20639;-68
2024/04/03 09:35:39;;;;;;;1.42;0.90;;;16.60;61.70;;;;;;5035133;28;20198;-69
2024/04/03 09:38:04;;;;;;;1.35;0.77;;;16.60;61.80;;;;;;5034829;28;20589;-68
2024/04/03 09:40:31;;;;;;;2.45;0.88;;;16.60;61.80;;;;;;5035108;28;20740;-69
2024/04/03 09:43:04;;;;;;;1.17;0.80;;;16.60;61.80;;;;;;5035050;28;20220;-68
2024/04/03 09:45:30;;;;;;;2.17;1.10;;;16.60;61.90;;;;;;5033046;28;20230;-68
2024/04/03 09:48:05;;;;;;;1.48;0.73;;;16.60;61.90;;;;;;5035202;28;20184;-69
2024/04/03 09:50:40;;;;;;;1.33;1.10;;;16.50;61.90;;;;;;5035148;28;20184;-68
2024/04/03 09:53:11;;;;;;;0.80;0.80;;;16.50;62.00;;;;;;5033289;28;20172;-68
2024/04/03 09:55:36;;;;;;;2.08;1.17;;;16.50;62.00;;;;;;5035201;28;20646;-69
2024/04/03 09:58:03;;;;;;;1.65;0.90;;;16.50;62.00;;;;;;5032975;28;20168;-69
2024/04/03 10:00:28;;;;;;;0.60;0.60;;;16.50;62.10;;;;;;5034921;28;20615;-69
2024/04/03 10:02:54;;;;;;;0.68;0.68;;;16.50;62.10;;;;;;5035129;28;20713;-68
2024/04/03 10:05:21;;;;;;;1.38;0.75;;;16.50;62.10;;;;;;5034104;28;20258;-69
2024/04/03 10:08:10;;;;;;;0.80;0.80;;;16.50;62.10;;;;;;5034841;28;20207;-68
2024/04/03 10:10:35;;;;;;;1.13;0.68;;;16.60;62.10;;;;;;5035340;28;20592;-68
2024/04/03 10:13:01;;;;;;;1.40;0.90;;;16.60;62.10;;;;;;5032576;28;20238;-68
2024/04/03 10:15:27;;;;;;;1.80;0.90;;;16.50;62.00;;;;;;5034725;28;20176;-68
2024/04/03 10:18:00;;;;;;;1.42;0.90;;;16.50;62.00;;;;;;5034599;28;20238;-69
2024/04/03 10:20:36;;;;;;;0.70;0.70;;;16.50;62.10;;;;;;5032482;28;20266;-68
2024/04/03 10:23:19;;;;;;;1.58;0.80;;;16.50;62.10;;;;;;5034482;28;20237;-67
2024/04/03 10:25:45;;;;;;;1.60;0.82;;;16.40;62.00;;;;;;5033627;28;20178;-68
2024/04/03 10:28:11;;;;;;;1.40;0.80;;;16.50;62.10;;;;;;5032271;28;20176;-68
2024/04/03 10:30:37;;;;;;;0.60;0.60;;;16.50;62.00;;;;;;5034645;28;20190;-68
2024/04/03 10:33:05;;;;;;;2.20;1.05;;;16.50;62.10;;;;;;5033773;28;20267;-68
2024/04/03 10:35:31;;;;;;;1.40;0.77;;;16.50;62.00;;;;;;5034108;28;20229;-68
2024/04/03 10:37:58;;;;;;;1.17;0.80;;;16.50;62.00;;;;;;5034534;28;20176;-69
2024/04/03 10:40:27;;;;;;;0.95;0.70;;;16.60;62.00;;;;;;5033224;28;20708;-68
2024/04/03 10:42:52;;;;;;;0.80;0.80;;;16.60;62.00;;;;;;5034147;28;20303;-69
2024/04/03 10:45:19;;;;;;;1.05;0.77;;;16.60;61.90;;;;;;5034071;28;20346;-68
2024/04/03 10:47:47;;;;;;;1.25;0.90;;;16.60;61.90;;;;;;5033605;28;20701;-68
2024/04/03 10:50:14;;;;;;;1.65;0.80;;;16.60;61.90;;;;;;5033777;28;20286;-68
2024/04/03 10:52:40;;;;;;;1.45;0.70;;;16.60;62.00;;;;;;5034370;28;20545;-68
2024/04/03 10:55:05;;;;;;;1.00;0.80;;;16.50;62.00;;;;;;5033534;28;20639;-68
2024/04/03 10:57:31;;;;;;;0.93;0.70;;;16.50;62.00;;;;;;5033925;28;20229;-68
2024/04/03 10:59:57;;;;;;;0.85;0.85;;;16.50;62.10;;;;;;5033942;28;20289;-68
2024/04/03 11:02:22;;;;;;;1.15;0.93;;;16.60;62.20;;;;;;5033108;28;20337;-68
2024/04/03 11:04:51;;;;;;;1.42;0.93;;;16.60;62.10;;;;;;5033826;28;20191;-68
2024/04/03 11:07:16;;;;;;;1.92;1.00;;;16.60;62.00;;;;;;5033795;28;20187;-68
2024/04/03 11:09:42;;;;;;;1.00;0.80;;;16.60;62.00;;;;;;5032142;28;20172;-68
2024/04/03 11:12:11;;;;;;;0.70;0.70;;;16.60;62.10;;;;;;5033698;28;20176;-68
2024/04/03 11:14:37;;;;;;;1.77;1.00;;;16.50;62.00;;;;;;5033010;28;20188;-68
2024/04/03 11:17:07;;;;;;;1.30;0.73;;;16.50;62.10;;;;;;5033021;28;20504;-68
2024/04/03 11:19:33;;;;;;;1.63;0.80;;;16.50;62.20;;;;;;5034036;28;20246;-68
2024/04/03 11:22:02;;;;;;;0.80;0.80;;;16.50;62.20;;;;;;5033845;28;20229;-68
2024/04/03 11:24:28;;;;;;;0.75;0.75;;;16.50;62.30;;;;;;5032800;28;20220;-68
2024/04/03 11:26:53;;;;;;;1.40;0.90;;;16.50;62.40;;;;;;5033636;28;20545;-68
2024/04/03 11:29:31;;;;;;;1.13;0.95;;;16.40;62.30;;;;;;5032510;28;20175;-68
2024/04/03 11:31:58;;;;;;;0.90;0.75;;;16.50;62.40;;;;;;5033297;28;20237;-66
2024/04/03 11:34:24;;;;;;;0.82;0.82;;;16.50;62.40;;;;;;5033444;28;20175;-67
2024/04/03 11:36:50;;;;;;;1.83;0.85;;;16.50;62.40;;;;;;5032658;28;20211;-67
2024/04/03 11:39:21;;;;;;;1.08;0.80;;;16.50;62.30;;;;;;5032860;28;20207;-66
2024/04/03 11:41:47;;;;;;;1.10;1.00;;;16.50;62.20;;;;;;5033152;28;20232;-67
2024/04/03 11:44:14;;;;;;;1.17;1.08;;;16.50;62.30;;;;;;5032088;28;20709;-67
2024/04/03 11:46:40;;;;;;;0.85;0.77;;;16.50;62.30;;;;;;5033330;28;20180;-67
2024/04/03 11:49:05;;;;;;;1.42;0.88;;;16.50;62.40;;;;;;5033161;28;20184;-66
2024/04/03 11:51:31;;;;;;;0.70;0.70;;;16.50;62.40;;;;;;5031980;28;20555;-67
2024/04/03 11:53:57;;;;;;;1.35;0.88;;;16.50;62.40;;;;;;5032904;28;20176;-67
2024/04/03 11:56:22;;;;;;;0.70;0.70;;;16.50;62.40;;;;;;5032614;28;20179;-67
2024/04/03 11:58:50;;;;;;;1.42;0.90;;;16.40;62.40;;;;;;5031949;28;20264;-67
2024/04/03 12:01:16;;;;;;;1.02;0.88;;;16.50;62.50;;;;;;5032704;28;20192;-66
2024/04/03 12:03:42;;;;;;;1.63;0.80;;;16.40;62.50;;;;;;5033011;28;20192;-66
2024/04/03 12:06:08;;;;;;;0.95;0.80;;;16.40;62.50;;;;;;5032048;28;20167;-66
2024/04/03 12:08:33;;;;;;;1.83;1.00;;;16.40;62.40;;;;;;5032788;28;20254;-66
2024/04/03 12:10:59;;;;;;;1.42;0.82;;;16.40;62.40;;;;;;5032626;28;20183;-66
2024/04/03 12:13:25;;;;;;;1.05;0.68;;;16.40;62.50;;;;;;5031610;28;20270;-66
2024/04/03 12:15:50;;;;;;;0.98;0.93;;;16.40;62.50;;;;;;5032828;28;20189;-66
2024/04/03 12:18:24;;;;;;;1.58;0.70;;;16.40;62.50;;;;;;5032445;28;20225;-67
2024/04/03 12:20:51;;;;;;;0.80;0.70;;;16.40;62.60;;;;;;5031836;28;20682;-66
2024/04/03 12:23:17;;;;;;;1.55;0.70;;;16.50;62.60;;;;;;5032232;28;20187;-67
2024/04/03 12:25:43;;;;;;;1.20;0.90;;;16.50;62.40;;;;;;5031763;28;20215;-66
2024/04/03 12:28:09;;;;;;;0.70;0.70;;;16.50;62.20;;;;;;5031955;28;20263;-66
2024/04/03 12:30:35;;;;;;;0.70;0.70;;;16.50;62.20;;;;;;5032326;28;20258;-67
2024/04/03 12:33:00;;;;;;;0.80;0.80;;;16.50;62.30;;;;;;5031672;28;20168;-66
2024/04/03 12:35:29;;;;;;;0.70;0.70;;;16.50;62.40;;;;;;5032031;28;20230;-66
2024/04/03 12:37:57;;;;;;;0.75;0.75;;;16.50;62.50;;;;;;5032269;28;20176;-67
2024/04/03 12:40:22;;;;;;;0.95;0.70;;;16.50;62.50;;;;;;5031128;28;20318;-67
2024/04/03 12:42:48;;;;;;;0.90;0.80;;;16.40;62.40;;;;;;5032087;28;20314;-66
2024/04/03 12:45:14;;;;;;;0.90;0.70;;;16.50;62.50;;;;;;5031871;28;20191;-66
2024/04/03 12:47:40;;;;;;;0.80;0.80;;;16.40;62.50;;;;;;5031434;28;20656;-66
2024/04/03 12:50:06;;;;;;;0.57;0.57;;;16.40;62.50;;;;;;5031557;28;20179;-66